Rechercher aéroport 
image banner adimage banner adimage banner ad
image banner ad

SCIH - Caleta Andrade

Situé à Aysen, Chile

ICAO - SCIH, IATA -

Données fournies par Airmate  

Information générale

Coordonnées: S45°8'56" W73°30'48"
Élévation : 115 feet MSL.
Variation magnétique : 11° East
Voir autres Aéroports à Aisén del General Carlos Ibañez

Données opérationnelles

Special qualification required
Heure actuelle UTC:
Heure actuelle locale:
Météo à : SCAS - Cabo Primero Juan Roman ( 72 km )
METAR: SCAS 152100Z 00000KT CAVOK 05/01 Q1030
Voir NOTAMs / SUP AIP / TFR affectant cet aéroport [VIEW]
Fréquences de communication: [VIEW]

Pistes:

Identifiant RWYQFULongueur (ft)Largeur (ft)SurfaceLDA (ft)
12143°221863ASPH
30323°221863ASPH

Coordonnées de l'aéroport

Adresse: Aysen Chile

Vue satellite de SCIH